Nearby METAR Reports

 

KNUQ - Moffett Nas/Mtn, California, USA
Distance from station: N 9mi, 14km
Updated: Mon, 18-Oct-2021 3:55pm PDT
Clear
Clear
 Wind from NNW
Wind: NNW 12 mph , 19 km/h, Gust: 17 mph , 28 km/h
Temperature: 61°F , 16°C
Dew Point: 45°F , 7°C
Humidity: 55%
Barometer: 30.02 inHg , 1016.6 hPa
Clouds: Clear
Visibility: 10 miles , 16 km
2021/10/18 22:55 KNUQ 182255Z AUTO 34010G15KT 10SM CLR 16/07 A3002 RMK AO2
KSJC - San Jose, California, USA
Distance from station: NE 9mi, 14km
Updated: Mon, 18-Oct-2021 3:53pm PDT
Partly Cloudy
Partly Cloudy
 Wind from N
Wind: N 8 mph , 13 km/h
Temperature: 64°F , 18°C
Dew Point: 45°F , 7°C
Humidity: 49%
Barometer: 30.02 inHg , 1016.6 hPa
Clouds: Partly Cloudy
Visibility: 10 miles , 16 km
Cloud details: Few Clouds 3000 ft
Partly Cloudy 3800 ft
Partly Cloudy 5000 ft
2021/10/18 22:53 KSJC 182253Z 35007KT 10SM FEW030 SCT038 SCT050 18/07 A3002 RMK AO2 SLP163 TCU DSNT NE
 
KRHV - San Jose/Reid, California, USA
Distance from station: ENE 12mi, 19km
Updated: Mon, 18-Oct-2021 3:50pm PDT
Partly Cloudy
Partly Cloudy
 Wind from N
Wind: N 7 mph , 11 km/h
Temperature: 63°F , 17°C
Dew Point: 43°F , 6°C
Humidity: 49%
Barometer: 30.02 inHg , 1016.6 hPa
Clouds: Partly Cloudy
Visibility: 10 miles , 16 km
Cloud details: Partly Cloudy 4000 ft
2021/10/18 22:50 KRHV 182250Z 35006KT 10SM SCT040 17/06 A3002
KPAO - Palo Alto, California, USA
Distance from station: NNW 14mi, 23km
Updated: Mon, 18-Oct-2021 3:47pm PDT
Partly Cloudy
Partly Cloudy
 Wind from NNW
Wind: NNW 12 mph , 19 km/h
Temperature: 61°F , 16°C
Dew Point: 46°F , 8°C
Humidity: 59%
Barometer: 30.02 inHg , 1016.6 hPa
Clouds: Partly Cloudy
Visibility: 10 miles , 16 km
Cloud details: Partly Cloudy 4000 ft
2021/10/18 22:47 KPAO 182247Z 34010KT 10SM SCT040 16/08 A3002
 
KSQL - San Carlos Airpo, California, USA
Distance from station: NW 21mi, 34km
Updated: Mon, 18-Oct-2021 2:47pm PDT
NOT Current
Mostly Cloudy
Mostly Cloudy
 Wind from WSW
Wind: WSW 13 mph , 20 km/h
Temperature: 63°F , 17°C
Dew Point: 45°F , 7°C
Humidity: 52%
Barometer: 30.03 inHg , 1016.9 hPa
Clouds: Mostly Cloudy
Visibility: 10 miles , 16 km
Cloud details: Mostly Cloudy 3700 ft
2021/10/18 21:47 KSQL 182147Z 24011KT 10SM BKN037 17/07 A3003
KWVI - Watsonville, California, USA
Distance from station: SSE 27mi, 44km
Updated: Mon, 18-Oct-2021 3:53pm PDT
Partly Cloudy
Partly Cloudy
 Wind from WSW
Wind: WSW 10 mph , 17 km/h, Gust: 22 mph , 35 km/h
Temperature: 61°F , 16°C
Dew Point: 46°F , 8°C
Humidity: 59%
Barometer: 30.02 inHg , 1016.6 hPa
Clouds: Partly Cloudy
Visibility: 10 miles , 16 km
Cloud details: Partly Cloudy 6000 ft
2021/10/18 22:53 KWVI 182253Z AUTO 25009G19KT 10SM SCT060 16/08 A3002 RMK AO2 SLP166 T01610083
 
KHWD - Hayward, California, USA
Distance from station: N 28mi, 44km
Updated: Mon, 18-Oct-2021 3:54pm PDT
Clear
Clear
 Wind from W
Wind: W 12 mph , 19 km/h
Temperature: 61°F , 16°C
Dew Point: 46°F , 8°C
Humidity: 59%
Barometer: 30.02 inHg , 1016.6 hPa
Clouds: Clear
Visibility: 10 miles , 16 km
2021/10/18 22:54 KHWD 182254Z 28010KT 10SM CLR 16/08 A3002 RMK AO2 SLP176 T01560078
KSFO - San Francisco, California, USA
Distance from station: NW 30mi, 49km
Updated: Mon, 18-Oct-2021 3:56pm PDT
Partly Cloudy
Partly Cloudy
 Wind from WNW
Wind: WNW 10 mph , 17 km/h
Temperature: 61°F , 16°C
Dew Point: 46°F , 8°C
Humidity: 59%
Barometer: 30.03 inHg , 1016.9 hPa
Clouds: Partly Cloudy
Visibility: 10 miles , 16 km
Cloud details: Few Clouds 2700 ft
Partly Cloudy 3000 ft
2021/10/18 22:56 KSFO 182256Z 30009KT 10SM FEW027 SCT030 16/08 A3003 RMK AO2 SLP168 T01560078
 
KHAF - Half Moon Bay, California, USA
Distance from station: WNW 31mi, 50km
Updated: Mon, 18-Oct-2021 3:55pm PDT
Partly Cloudy
Partly Cloudy
 Wind from W
Wind: W 8 mph , 13 km/h
Temperature: 57°F , 14°C
Dew Point: 50°F , 10°C
Humidity: 77%
Barometer: 30.04 inHg , 1017.3 hPa
Clouds: Partly Cloudy
Visibility: 10 miles , 16 km
Cloud details: Partly Cloudy 1800 ft
2021/10/18 22:55 KHAF 182255Z AUTO 28007KT 10SM SCT018 14/10 A3004 RMK AO2
KOAK - Oakland, California, USA
Distance from station: NNW 31mi, 50km
Updated: Mon, 18-Oct-2021 3:53pm PDT
Partly Cloudy
Partly Cloudy
 Wind from W
Wind: W 13 mph , 20 km/h
Temperature: 63°F , 17°C
Dew Point: 48°F , 9°C
Humidity: 59%
Barometer: 30.03 inHg , 1016.9 hPa
Clouds: Partly Cloudy
Visibility: 10 miles , 16 km
Cloud details: Partly Cloudy 3000 ft
2021/10/18 22:53 KOAK 182253Z 26011KT 10SM SCT030 17/09 A3003 RMK AO2 SLP169 T01670089
 
KLVK - Livermore, California, USA
Distance from station: NNE 31mi, 51km
Updated: Mon, 18-Oct-2021 3:53pm PDT
Partly Cloudy
Partly Cloudy
 Wind from calm
Wind: Calm
Temperature: 63°F , 17°C
Dew Point: 43°F , 6°C
Humidity: 49%
Barometer: 30.00 inHg , 1015.9 hPa
Clouds: Partly Cloudy
Visibility: 10 miles , 16 km
Cloud details: Partly Cloudy 4200 ft
Partly Cloudy 5000 ft
2021/10/18 22:53 KLVK 182253Z 00000KT 10SM SCT042 SCT050 17/06 A3000 RMK AO2 SLP157 T01670056
KCVH - Hollister Muni, California, USA
Distance from station: SE 42mi, 68km
Updated: Mon, 18-Oct-2021 3:55pm PDT
Clear
Clear
 Wind from W
Wind: W 7 mph , 11 km/h, Gust: 14 mph , 22 km/h
Temperature: 64°F , 18°C
Dew Point: 41°F , 5°C
Humidity: 43%
Barometer: 30.02 inHg , 1016.6 hPa
Clouds: Clear
Visibility: 10 miles , 16 km
2021/10/18 22:55 KCVH 182255Z AUTO 27006G12KT 10SM CLR 18/05 A3002 RMK A01
 
KSNS - Salinas, California, USA
Distance from station: SSE 48mi, 77km
Updated: Mon, 18-Oct-2021 3:53pm PDT
Clear
Clear
 Wind from WNW
Wind: WNW 10 mph , 17 km/h
Temperature: 63°F , 17°C
Dew Point: 43°F , 6°C
Humidity: 49%
Barometer: 30.02 inHg , 1016.6 hPa
Clouds: Clear
Visibility: 10 miles , 16 km
2021/10/18 22:53 KSNS 182253Z 30009KT 10SM CLR 17/06 A3002 RMK AO2 SLP176 T01720061
KMRY - Monterey, California, USA
Distance from station: SSE 49mi, 78km
Updated: Mon, 18-Oct-2021 3:54pm PDT
Clear
Clear
 Wind from W
Wind: W 9 mph , 15 km/h
Temperature: 61°F , 16°C
Dew Point: 45°F , 7°C
Humidity: 55%
Barometer: 30.04 inHg , 1017.3 hPa
Clouds: Clear
Visibility: 10 miles , 16 km
2021/10/18 22:54 KMRY 182254Z 27008KT 10SM CLR 16/07 A3004 RMK AO2 SLP185 T01610072
 
KCCR - Concord, California, USA
Distance from station: N 50mi, 81km
Updated: Mon, 18-Oct-2021 3:53pm PDT
Partly Cloudy
Partly Cloudy
 Wind from NNW
Wind: NNW 5 mph , 7 km/h
Temperature: 64°F , 18°C
Dew Point: 39°F , 4°C
Humidity: 40%
Barometer: 30.01 inHg , 1016.3 hPa
Clouds: Partly Cloudy
Visibility: 10 miles , 16 km
Cloud details: Partly Cloudy 4000 ft
2021/10/18 22:53 KCCR 182253Z 33004KT 10SM SCT040 18/04 A3001 RMK AO2 SLP147 T01830044

Metar display script from Saratoga-Weather.org